Time;durP1;ratioP1;P1;durP2;ratioP2;P2;SDS_P1;SDS_P2;PMS_P1;PMS_P2;Temp;Humidity;BMP_temperature;BMP_pressure;BME280_temperature;BME280_humidity;BME280_pressure;Samples;Min_cycle;Max_cycle;Signal;HPM_P1;HPM_P2
2022/09/05 00:01:35;;;;;;;;;;;23.30;60.60;;;;;;4917988;29;19958;-68
2022/09/05 00:04:27;;;;;;;;;;;23.40;60.60;;;;;;4917807;29;20010;-69
2022/09/05 00:06:57;;;;;;;;;;;23.40;60.70;;;;;;4919398;29;20375;-66
2022/09/05 00:09:49;;;;;;;;;;;23.40;60.50;;;;;;4917521;29;19931;-69
2022/09/05 00:12:15;;;;;;;;;;;23.40;60.50;;;;;;4931273;29;20452;-65
2022/09/05 00:14:50;;;;;;;;;;;23.40;60.60;;;;;;4917685;29;20338;-69
2022/09/05 00:17:18;;;;;;;;;;;23.40;60.70;;;;;;4917614;29;19983;-66
2022/09/05 00:20:02;;;;;;;;;;;23.30;60.90;;;;;;4917393;29;20326;-69
2022/09/05 00:22:43;;;;;;;;;;;23.20;61.00;;;;;;4903793;29;20387;-70
2022/09/05 00:25:21;;;;;;;;;;;23.30;60.90;;;;;;4917522;29;19911;-67
2022/09/05 00:27:54;;;;;;;;;;;23.30;60.70;;;;;;4917519;29;20637;-66
2022/09/05 00:30:20;;;;;;;;;;;23.30;60.60;;;;;;4917415;29;19915;-70
2022/09/05 00:33:02;;;;;;;;;;;23.30;60.70;;;;;;4917284;29;19919;-67
2022/09/05 00:35:37;;;;;;;;;;;23.20;60.80;;;;;;4917297;29;19915;-65
2022/09/05 00:38:10;;;;;;;;;;;23.20;61.00;;;;;;4917311;29;20435;-68
2022/09/05 00:40:39;;;;;;;;;;;23.20;61.00;;;;;;4917140;29;19911;-66
2022/09/05 00:43:06;;;;;;;;;;;23.20;60.80;;;;;;4917140;29;20278;-67
2022/09/05 00:45:46;;;;;;;;;;;23.20;60.80;;;;;;4917085;29;19915;-66
2022/09/05 00:48:17;;;;;;;;;;;23.20;60.60;;;;;;4916925;29;19915;-66
2022/09/05 00:50:42;;;;;;;;;;;23.20;60.80;;;;;;4928645;29;19915;-66
2022/09/05 00:53:12;;;;;;;;;;;23.20;60.70;;;;;;4896657;29;19934;-65
2022/09/05 00:55:45;;;;;;;;;;;23.20;60.80;;;;;;4917369;29;20368;-67
2022/09/05 00:58:19;;;;;;;;;;;23.20;60.80;;;;;;4916920;29;19958;-67
2022/09/05 01:00:52;;;;;;;;;;;23.10;61.20;;;;;;4916858;29;19990;-66
2022/09/05 01:03:36;;;;;;;;;;;23.10;61.20;;;;;;4916897;29;19954;-68
2022/09/05 01:06:22;;;;;;;;;;;23.10;61.30;;;;;;4916748;29;20383;-70
2022/09/05 01:09:00;;;;;;;;;;;23.10;61.30;;;;;;4930049;29;20447;-68
2022/09/05 01:11:34;;;;;;;;;;;23.10;61.00;;;;;;4916942;29;20352;-66
2022/09/05 01:14:09;;;;;;;;;;;23.10;61.00;;;;;;4916615;29;20023;-66
2022/09/05 01:16:40;;;;;;;;;;;23.00;61.10;;;;;;4916784;29;19911;-66
2022/09/05 01:19:24;;;;;;;;;;;23.10;61.20;;;;;;4916580;29;19911;-67
2022/09/05 01:22:05;;;;;;;;;;;23.10;61.20;;;;;;4916567;29;19915;-67
2022/09/05 01:24:51;;;;;;;;;;;23.00;61.40;;;;;;4916658;29;20308;-66
2022/09/05 01:27:32;;;;;;;;;;;23.00;61.20;;;;;;4916418;29;19962;-66
2022/09/05 01:30:04;;;;;;;;;;;22.90;61.20;;;;;;4916256;29;19915;-66
2022/09/05 01:32:52;;;;;;;;;;;22.90;61.30;;;;;;4916178;29;19919;-66
2022/09/05 01:35:19;;;;;;;;;;;22.90;61.40;;;;;;4916237;29;19915;-65
2022/09/05 01:38:05;;;;;;;;;;;22.90;61.20;;;;;;4916378;29;19911;-65
2022/09/05 01:40:33;;;;;;;;;;;22.90;61.30;;;;;;4916219;29;19915;-67
2022/09/05 01:43:15;;;;;;;;;;;22.90;61.50;;;;;;4916060;29;19922;-65
2022/09/05 01:46:07;;;;;;;;;;;22.80;61.70;;;;;;4916145;29;19919;-67
2022/09/05 01:48:47;;;;;;;;;;;22.90;62.00;;;;;;4916045;29;19957;-69
2022/09/05 01:51:31;;;;;;;;;;;22.80;62.00;;;;;;4916173;29;19911;-68
2022/09/05 01:54:06;;;;;;;;;;;22.80;62.20;;;;;;4904035;29;20276;-63
2022/09/05 01:56:40;;;;;;;;;;;22.70;62.20;;;;;;4916086;29;20051;-68
2022/09/05 01:59:24;;;;;;;;;;;22.70;62.20;;;;;;4916021;29;20712;-68
2022/09/05 02:02:08;;;;;;;;;;;22.70;62.30;;;;;;4915783;29;19947;-67
2022/09/05 02:04:52;;;;;;;;;;;22.80;62.10;;;;;;4916060;29;19919;-66
2022/09/05 02:07:32;;;;;;;;;;;22.80;62.00;;;;;;4915755;29;19954;-67
2022/09/05 02:10:10;;;;;;;;;;;22.80;62.30;;;;;;4915690;29;19971;-65
2022/09/05 02:12:42;;;;;;;;;;;22.80;62.40;;;;;;4915746;29;20363;-67
2022/09/05 02:15:15;;;;;;;;;;;22.70;62.50;;;;;;4916273;29;20394;-66
2022/09/05 02:17:41;;;;;;;;;;;22.80;62.60;;;;;;4915513;29;19912;-67
2022/09/05 02:20:15;;;;;;;;;;;22.80;62.40;;;;;;4915945;29;19911;-70
2022/09/05 02:22:42;;;;;;;;;;;22.80;62.40;;;;;;4911379;29;19915;-70
2022/09/05 02:25:13;;;;;;;;;;;22.80;62.70;;;;;;4919787;29;20029;-70
2022/09/05 02:27:41;;;;;;;;;;;22.70;62.70;;;;;;4919671;29;19952;-66
2022/09/05 02:30:12;;;;;;;;;;;22.80;62.70;;;;;;4919387;29;19978;-68
2022/09/05 02:32:44;;;;;;;;;;;22.80;62.90;;;;;;4919730;29;20377;-67
2022/09/05 02:35:10;;;;;;;;;;;22.90;62.80;;;;;;4919422;29;19943;-69
2022/09/05 02:37:44;;;;;;;;;;;22.90;62.90;;;;;;4919426;29;19915;-69
2022/09/05 02:40:22;;;;;;;;;;;22.90;62.80;;;;;;4919336;29;19931;-67
2022/09/05 02:42:50;;;;;;;;;;;22.90;62.90;;;;;;4919341;29;20389;-66
2022/09/05 02:45:45;;;;;;;;;;;22.90;62.80;;;;;;4919185;29;20316;-66
2022/09/05 02:48:17;;;;;;;;;;;22.90;62.90;;;;;;4926546;29;20287;-66
2022/09/05 02:50:48;;;;;;;;;;;22.90;62.70;;;;;;4919007;29;19911;-69
2022/09/05 02:53:15;;;;;;;;;;;22.80;62.80;;;;;;4904536;29;20014;-65
2022/09/05 02:55:59;;;;;;;;;;;22.90;62.80;;;;;;4919174;29;19911;-68
2022/09/05 02:58:25;;;;;;;;;;;22.80;62.90;;;;;;4918988;29;19917;-67
2022/09/05 03:01:00;;;;;;;;;;;22.80;63.00;;;;;;4918994;29;20010;-65
2022/09/05 03:03:41;;;;;;;;;;;22.90;62.80;;;;;;4918936;29;20010;-66
2022/09/05 03:06:18;;;;;;;;;;;22.90;62.90;;;;;;4919026;29;19923;-67
2022/09/05 03:09:13;;;;;;;;;;;22.90;63.00;;;;;;4918830;29;19919;-69
2022/09/05 03:11:38;;;;;;;;;;;22.90;62.80;;;;;;4926375;29;19922;-64
2022/09/05 03:14:17;;;;;;;;;;;22.90;62.70;;;;;;4918501;29;19941;-67
2022/09/05 03:16:45;;;;;;;;;;;22.90;62.80;;;;;;4933156;29;19915;-66
2022/09/05 03:19:29;;;;;;;;;;;22.90;63.00;;;;;;4918338;29;19915;-67
2022/09/05 03:22:14;;;;;;;;;;;22.90;62.90;;;;;;4909071;29;20365;-65
2022/09/05 03:24:58;;;;;;;;;;;22.80;63.00;;;;;;4918633;29;19915;-66
2022/09/05 03:27:23;;;;;;;;;;;22.90;62.80;;;;;;4918524;29;19919;-66
2022/09/05 03:29:52;;;;;;;;;;;22.90;62.70;;;;;;4918427;29;19922;-66
2022/09/05 03:32:26;;;;;;;;;;;23.00;62.40;;;;;;4918158;29;20287;-69
2022/09/05 03:34:59;;;;;;;;;;;22.90;62.60;;;;;;4918339;29;19911;-67
2022/09/05 03:37:43;;;;;;;;;;;22.80;63.20;;;;;;4918912;29;19923;-67
2022/09/05 03:40:14;;;;;;;;;;;22.60;63.50;;;;;;4918240;29;20364;-69
2022/09/05 03:42:49;;;;;;;;;;;22.70;63.50;;;;;;4918336;29;19915;-66
2022/09/05 03:45:27;;;;;;;;;;;22.70;63.60;;;;;;4918131;29;20041;-65
2022/09/05 03:47:52;;;;;;;;;;;22.70;63.60;;;;;;4918300;29;19911;-66
2022/09/05 03:50:44;;;;;;;;;;;22.80;63.40;;;;;;4918121;29;19922;-66
2022/09/05 03:53:12;;;;;;;;;;;22.80;63.60;;;;;;4906858;29;19923;-64
2022/09/05 03:55:56;;;;;;;;;;;22.70;63.80;;;;;;4918096;29;19927;-66
2022/09/05 03:58:22;;;;;;;;;;;22.80;63.20;;;;;;4918021;29;19915;-68
2022/09/05 04:01:23;;;;;;;;;;;22.80;62.80;;;;;;4917991;29;19963;-67
2022/09/05 04:03:59;;;;;;;;;;;22.80;62.80;;;;;;4953582;29;19958;-67
2022/09/05 04:06:30;;;;;;;;;;;22.80;63.10;;;;;;4922956;29;19923;-66
2022/09/05 04:09:05;;;;;;;;;;;22.80;63.20;;;;;;4917505;29;20367;-67
2022/09/05 04:11:39;;;;;;;;;;;22.80;63.10;;;;;;4917871;29;19911;-69
2022/09/05 04:14:20;;;;;;;;;;;22.80;62.80;;;;;;4917726;29;19926;-69
2022/09/05 04:16:57;;;;;;;;;;;22.80;62.90;;;;;;4917814;29;19937;-66
2022/09/05 04:19:27;;;;;;;;;;;22.70;62.50;;;;;;4917476;29;19918;-66
2022/09/05 04:22:01;;;;;;;;;;;22.80;62.80;;;;;;4909526;29;19918;-67
2022/09/05 04:24:27;;;;;;;;;;;22.70;63.10;;;;;;4917527;29;19919;-66
2022/09/05 04:26:53;;;;;;;;;;;22.80;63.20;;;;;;4917409;29;19911;-68
2022/09/05 04:29:22;;;;;;;;;;;22.70;63.30;;;;;;4917428;29;20398;-66
2022/09/05 04:32:00;;;;;;;;;;;22.90;62.90;;;;;;4917511;29;19926;-66
2022/09/05 04:34:48;;;;;;;;;;;22.90;62.70;;;;;;4917286;29;19969;-67
2022/09/05 04:37:29;;;;;;;;;;;22.90;62.40;;;;;;4921784;29;20006;-69
2022/09/05 04:39:55;;;;;;;;;;;22.90;62.00;;;;;;4917260;29;19919;-69
2022/09/05 04:42:23;;;;;;;;;;;22.90;62.60;;;;;;4917250;29;19921;-68
2022/09/05 04:44:48;;;;;;;;;;;22.80;63.20;;;;;;4916497;29;20439;-70
2022/09/05 04:47:27;;;;;;;;;;;22.60;63.80;;;;;;4917180;29;20005;-70
2022/09/05 04:50:13;;;;;;;;;;;22.60;63.80;;;;;;4917011;29;19974;-70
2022/09/05 04:52:56;;;;;;;;;;;22.60;63.90;;;;;;4906231;29;20344;-69
2022/09/05 04:55:32;;;;;;;;;;;22.50;64.60;;;;;;4916847;29;19912;-69
2022/09/05 04:58:21;;;;;;;;;;;22.50;64.60;;;;;;4916866;29;19970;-66
2022/09/05 05:01:05;;;;;;;;;;;22.40;65.00;;;;;;4921280;29;20328;-66
2022/09/05 05:03:32;;;;;;;;;;;22.40;64.90;;;;;;4929201;29;19916;-69
2022/09/05 05:05:57;;;;;;;;;;;22.40;65.00;;;;;;4916656;29;19926;-70
2022/09/05 05:08:23;;;;;;;;;;;22.40;65.00;;;;;;4916698;29;19919;-69
2022/09/05 05:10:58;;;;;;;;;;;22.40;65.20;;;;;;4927878;29;19919;-69
2022/09/05 05:13:24;;;;;;;;;;;22.40;64.90;;;;;;4909451;29;19919;-70
2022/09/05 05:15:52;;;;;;;;;;;22.40;65.40;;;;;;4916595;29;20013;-70
2022/09/05 05:18:32;;;;;;;;;;;22.40;65.90;;;;;;4916370;29;20013;-69
2022/09/05 05:21:18;;;;;;;;;;;22.30;67.00;;;;;;4916140;29;19915;-70
2022/09/05 05:23:52;;;;;;;;;;;22.20;67.50;;;;;;4904308;29;19954;-65
2022/09/05 05:26:23;;;;;;;;;;;22.20;68.30;;;;;;4914707;29;19926;-69
2022/09/05 05:29:02;;;;;;;;;;;22.10;67.40;;;;;;4916284;29;19911;-69
2022/09/05 05:31:32;;;;;;;;;;;22.10;67.10;;;;;;4916012;29;20355;-69
2022/09/05 05:34:00;;;;;;;;;;;22.10;68.30;;;;;;4916327;29;20284;-66
2022/09/05 05:36:28;;;;;;;;;;;22.20;68.00;;;;;;4916420;29;19961;-67
2022/09/05 05:39:01;;;;;;;;;;;22.20;65.70;;;;;;4916383;29;19915;-71
2022/09/05 05:41:46;;;;;;;;;;;22.40;65.10;;;;;;4916260;29;20301;-68
2022/09/05 05:44:15;;;;;;;;;;;22.40;64.80;;;;;;4916324;29;20280;-68
2022/09/05 05:46:56;;;;;;;;;;;22.50;64.60;;;;;;4916163;29;19967;-64
2022/09/05 05:49:54;;;;;;;;;;;22.60;65.10;;;;;;4916087;29;19911;-65
2022/09/05 05:52:20;;;;;;;;;;;22.50;66.40;;;;;;4926092;29;19919;-64
2022/09/05 05:54:53;;;;;;;;;;;22.60;66.00;;;;;;4916169;29;19974;-70
2022/09/05 05:57:33;;;;;;;;;;;22.60;66.20;;;;;;4916041;29;19919;-69
2022/09/05 06:00:17;;;;;;;;;;;22.80;64.50;;;;;;4915853;29;19918;-65
2022/09/05 06:03:18;;;;;;;;;;;22.70;65.40;;;;;;4915982;29;19918;-65
2022/09/05 06:06:02;;;;;;;;;;;22.40;66.40;;;;;;4951707;29;19910;-64
2022/09/05 06:08:43;;;;;;;;;;;22.70;66.60;;;;;;4919906;29;20295;-64
2022/09/05 06:11:13;;;;;;;;;;;23.10;67.30;;;;;;4917184;29;20030;-63
2022/09/05 06:13:57;;;;;;;;;;;23.60;65.10;;;;;;4918198;29;19934;-66
2022/09/05 06:16:41;;;;;;;;;;;24.10;64.20;;;;;;4917249;29;19918;-62
2022/09/05 06:19:22;;;;;;;;;;;24.50;61.50;;;;;;4915671;29;19911;-64
2022/09/05 06:22:01;;;;;;;;;;;24.90;60.50;;;;;;4915678;29;20422;-65
2022/09/05 06:24:39;;;;;;;;;;;25.30;58.90;;;;;;4915608;29;20387;-68
2022/09/05 06:27:22;;;;;;;;;;;25.60;58.50;;;;;;4915772;29;19917;-63
2022/09/05 06:29:57;;;;;;;;;;;25.90;57.90;;;;;;4915393;29;19954;-65
2022/09/05 06:32:42;;;;;;;;;;;26.10;57.40;;;;;;4915617;29;19969;-66
2022/09/05 06:35:13;;;;;;;;;;;26.30;56.80;;;;;;4915550;29;19919;-66
2022/09/05 06:37:44;;;;;;;;;;;26.50;56.50;;;;;;4915633;29;19918;-64
2022/09/05 06:40:16;;;;;;;;;;;26.70;55.80;;;;;;4915450;29;20264;-66
2022/09/05 06:42:47;;;;;;;;;;;26.80;55.10;;;;;;4915577;29;19917;-65
2022/09/05 06:45:22;;;;;;;;;;;26.90;54.70;;;;;;4915529;29;20264;-65
2022/09/05 06:47:49;;;;;;;;;;;27.00;54.00;;;;;;4915601;29;19919;-64
2022/09/05 06:50:23;;;;;;;;;;;27.10;54.00;;;;;;4915459;29;20379;-64
2022/09/05 06:53:11;;;;;;;;;;;27.20;53.90;;;;;;4904399;29;19938;-65
2022/09/05 06:55:43;;;;;;;;;;;27.40;53.70;;;;;;4915734;29;19911;-65
2022/09/05 06:58:12;;;;;;;;;;;27.40;53.60;;;;;;4915622;29;20335;-64
2022/09/05 07:00:44;;;;;;;;;;;27.50;53.50;;;;;;4915308;29;19946;-66
2022/09/05 07:03:12;;;;;;;;;;;27.60;52.90;;;;;;4914036;29;20431;-63
2022/09/05 07:05:54;;;;;;;;;;;27.70;53.10;;;;;;4914604;29;20382;-63
2022/09/05 07:08:20;;;;;;;;;;;27.70;53.20;;;;;;4917826;29;20307;-63
2022/09/05 07:11:00;;;;;;;;;;;27.90;52.90;;;;;;4917639;29;19921;-63
2022/09/05 07:13:37;;;;;;;;;;;27.90;52.80;;;;;;4918450;29;19926;-64
2022/09/05 07:16:08;;;;;;;;;;;28.00;52.40;;;;;;4908794;29;19958;-63
2022/09/05 07:18:42;;;;;;;;;;;28.10;51.30;;;;;;4917956;29;20278;-67
2022/09/05 07:21:46;;;;;;;;;;;28.10;51.20;;;;;;4916991;29;19923;-66
2022/09/05 07:24:15;;;;;;;;;;;28.30;51.50;;;;;;4885976;29;19955;-65
2022/09/05 07:26:43;;;;;;;;;;;28.30;51.10;;;;;;4897480;29;19998;-62
2022/09/05 07:29:11;;;;;;;;;;;28.40;50.40;;;;;;4907782;29;19937;-64
2022/09/05 07:31:37;;;;;;;;;;;28.40;50.70;;;;;;4918407;29;20327;-64
2022/09/05 07:34:23;;;;;;;;;;;28.50;51.20;;;;;;4918485;29;19927;-64
2022/09/05 07:36:53;;;;;;;;;;;28.50;51.50;;;;;;4918349;29;20347;-66
2022/09/05 07:39:24;;;;;;;;;;;28.50;51.40;;;;;;4918342;29;19915;-63
2022/09/05 07:41:52;;;;;;;;;;;28.50;51.80;;;;;;4918323;29;20283;-64
2022/09/05 07:44:17;;;;;;;;;;;28.30;51.20;;;;;;4918220;29;19918;-63
2022/09/05 07:46:46;;;;;;;;;;;28.20;51.30;;;;;;4917955;29;19915;-62
2022/09/05 07:49:15;;;;;;;;;;;28.20;51.40;;;;;;4917505;29;19922;-63
2022/09/05 07:52:00;;;;;;;;;;;28.20;52.10;;;;;;4917589;29;20320;-63
2022/09/05 07:54:27;;;;;;;;;;;28.30;52.60;;;;;;4917277;29;19926;-64
2022/09/05 07:56:58;;;;;;;;;;;28.30;52.50;;;;;;4917049;29;19911;-68
2022/09/05 07:59:25;;;;;;;;;;;28.30;52.70;;;;;;4916889;29;19926;-68
2022/09/05 08:01:52;;;;;;;;;;;28.30;52.40;;;;;;4904995;29;20000;-63
2022/09/05 08:04:23;;;;;;;;;;;28.30;52.30;;;;;;4917779;29;20433;-64
2022/09/05 08:06:51;;;;;;;;;;;28.20;52.80;;;;;;4917650;29;19915;-63
2022/09/05 08:09:25;;;;;;;;;;;28.30;53.30;;;;;;4916687;29;20387;-64
2022/09/05 08:11:55;;;;;;;;;;;28.30;53.40;;;;;;4916709;29;19919;-63
2022/09/05 08:14:33;;;;;;;;;;;28.30;52.20;;;;;;4916532;29;20407;-66
2022/09/05 08:16:58;;;;;;;;;;;28.20;52.90;;;;;;4916468;29;20565;-71
2022/09/05 08:19:36;;;;;;;;;;;28.20;53.00;;;;;;4913215;29;19911;-64
2022/09/05 08:22:02;;;;;;;;;;;28.20;52.10;;;;;;4904619;29;19951;-64
2022/09/05 08:24:45;;;;;;;;;;;28.20;52.60;;;;;;4916669;29;19923;-63
2022/09/05 08:27:34;;;;;;;;;;;28.20;51.60;;;;;;4917543;29;20363;-62
2022/09/05 08:30:02;;;;;;;;;;;28.20;51.50;;;;;;4917425;29;20367;-63
2022/09/05 08:32:30;;;;;;;;;;;28.30;51.70;;;;;;4916488;29;19923;-64
2022/09/05 08:35:00;;;;;;;;;;;28.30;52.30;;;;;;4917453;29;19918;-65
2022/09/05 08:37:27;;;;;;;;;;;28.40;51.70;;;;;;4917208;29;19922;-64
2022/09/05 08:39:53;;;;;;;;;;;28.40;51.80;;;;;;4917201;29;19915;-65
2022/09/05 08:42:41;;;;;;;;;;;28.30;51.80;;;;;;4917171;29;19950;-65
2022/09/05 08:45:16;;;;;;;;;;;28.20;52.90;;;;;;4917185;29;19911;-64
2022/09/05 08:48:00;;;;;;;;;;;28.10;53.30;;;;;;4916656;29;19946;-63
2022/09/05 08:50:44;;;;;;;;;;;28.00;54.10;;;;;;4915997;29;20364;-64
2022/09/05 08:53:19;;;;;;;;;;;28.00;54.20;;;;;;4904204;29;19919;-64
2022/09/05 08:56:00;;;;;;;;;;;28.00;54.10;;;;;;4917018;29;19911;-63
2022/09/05 08:58:37;;;;;;;;;;;28.10;53.60;;;;;;4916895;29;19961;-63
2022/09/05 09:01:18;;;;;;;;;;;28.00;53.50;;;;;;4916559;29;19915;-62
2022/09/05 09:03:49;;;;;;;;;;;28.00;53.10;;;;;;4916852;29;20276;-63
2022/09/05 09:06:19;;;;;;;;;;;27.90;53.90;;;;;;4916691;29;19919;-64
2022/09/05 09:08:51;;;;;;;;;;;28.00;53.60;;;;;;4916566;29;19974;-65
2022/09/05 09:11:23;;;;;;;;;;;27.90;54.70;;;;;;4916622;29;20017;-63
2022/09/05 09:13:51;;;;;;;;;;;27.80;53.60;;;;;;4916620;29;19927;-63
2022/09/05 09:16:30;;;;;;;;;;;27.80;54.20;;;;;;4931365;29;20326;-64
2022/09/05 09:18:55;;;;;;;;;;;27.80;54.70;;;;;;4916630;29;19943;-63
2022/09/05 09:21:30;;;;;;;;;;;27.80;55.10;;;;;;4916387;29;19911;-62
2022/09/05 09:24:34;;;;;;;;;;;27.80;54.90;;;;;;4906050;29;19912;-64
2022/09/05 09:27:05;;;;;;;;;;;27.80;55.80;;;;;;4952189;29;20001;-64
2022/09/05 09:29:34;;;;;;;;;;;27.90;55.30;;;;;;4951927;28;19911;-63
2022/09/05 09:31:59;;;;;;;;;;;27.90;55.10;;;;;;4952208;29;20013;-62
2022/09/05 09:34:25;;;;;;;;;;;27.90;55.40;;;;;;4952203;29;20001;-62
2022/09/05 09:37:11;;;;;;;;;;;27.80;55.10;;;;;;4952159;29;19953;-62
2022/09/05 09:40:02;;;;;;;;;;;27.80;55.10;;;;;;4938847;29;19910;-62
2022/09/05 09:42:46;;;;;;;;;;;27.60;55.60;;;;;;4923133;29;19936;-64
2022/09/05 09:45:17;;;;;;;;;;;27.40;55.60;;;;;;4951945;29;19917;-62
2022/09/05 09:47:55;;;;;;;;;;;27.40;56.60;;;;;;4952061;29;19970;-62
2022/09/05 09:50:39;;;;;;;;;;;27.30;56.60;;;;;;4951756;28;19910;-62
2022/09/05 09:53:23;;;;;;;;;;;27.40;56.20;;;;;;4943434;29;20146;-67
2022/09/05 09:56:05;;;;;;;;;;;27.30;55.90;;;;;;4952072;29;19917;-62
2022/09/05 09:58:46;;;;;;;;;;;27.30;55.80;;;;;;4922600;29;19919;-64
2022/09/05 10:01:17;;;;;;;;;;;27.30;55.10;;;;;;4915909;29;20002;-62
2022/09/05 10:03:55;;;;;;;;;;;27.20;55.20;;;;;;4915840;29;19923;-65
2022/09/05 10:06:40;;;;;;;;;;;27.10;55.30;;;;;;4915982;29;19915;-64
2022/09/05 10:09:05;;;;;;;;;;;27.20;55.20;;;;;;4915735;29;19931;-64
2022/09/05 10:11:37;;;;;;;;;;;27.20;55.10;;;;;;4916165;29;19974;-64
2022/09/05 10:14:22;;;;;;;;;;;27.30;54.40;;;;;;4916700;29;19923;-63
2022/09/05 10:16:47;;;;;;;;;;;27.30;53.70;;;;;;4915768;29;19921;-65
2022/09/05 10:19:16;;;;;;;;;;;27.30;54.50;;;;;;4915713;29;20005;-64
2022/09/05 10:21:41;;;;;;;;;;;27.30;54.90;;;;;;4916256;29;19911;-64
2022/09/05 10:24:27;;;;;;;;;;;27.20;54.30;;;;;;4911080;29;19915;-63
2022/09/05 10:27:04;;;;;;;;;;;27.20;54.10;;;;;;4916010;29;19911;-63
2022/09/05 10:29:33;;;;;;;;;;;27.30;54.30;;;;;;4915460;29;19922;-62
2022/09/05 10:32:06;;;;;;;;;;;27.30;54.40;;;;;;4916241;29;19919;-62
2022/09/05 10:34:55;;;;;;;;;;;27.30;53.80;;;;;;4915940;29;19979;-66
2022/09/05 10:37:22;;;;;;;;;;;27.30;52.70;;;;;;4914578;29;19915;-62
2022/09/05 10:39:51;;;;;;;;;;;27.30;52.70;;;;;;4915783;29;20371;-63
2022/09/05 10:42:24;;;;;;;;;;;27.20;52.90;;;;;;4917846;29;19911;-62
2022/09/05 10:44:52;;;;;;;;;;;27.20;53.20;;;;;;4919619;29;19946;-62
2022/09/05 10:47:20;;;;;;;;;;;27.30;53.70;;;;;;4919202;29;19966;-64
2022/09/05 10:49:47;;;;;;;;;;;27.30;53.10;;;;;;4919402;29;19911;-63
2022/09/05 10:52:18;;;;;;;;;;;27.30;52.90;;;;;;4909357;29;19911;-63
2022/09/05 10:55:02;;;;;;;;;;;27.30;51.70;;;;;;4917997;29;19919;-63
2022/09/05 10:57:37;;;;;;;;;;;27.30;52.10;;;;;;4918552;29;19915;-67
2022/09/05 11:00:02;;;;;;;;;;;27.20;52.50;;;;;;4918213;29;19997;-63
2022/09/05 11:02:29;;;;;;;;;;;27.20;53.20;;;;;;4918317;29;20395;-64
2022/09/05 11:04:58;;;;;;;;;;;27.20;52.70;;;;;;4926938;29;19921;-64
2022/09/05 11:07:40;;;;;;;;;;;27.30;52.70;;;;;;4928100;29;19915;-66
2022/09/05 11:10:10;;;;;;;;;;;27.40;53.30;;;;;;4928027;29;19927;-66
2022/09/05 11:12:48;;;;;;;;;;;27.40;52.30;;;;;;4925467;29;19919;-65
2022/09/05 11:15:16;;;;;;;;;;;27.40;51.90;;;;;;4926615;29;19916;-64
2022/09/05 11:17:59;;;;;;;;;;;27.40;52.40;;;;;;4925725;29;19961;-62
2022/09/05 11:20:27;;;;;;;;;;;27.40;53.00;;;;;;4918843;29;19918;-65
2022/09/05 11:22:59;;;;;;;;;;;27.50;51.80;;;;;;4907879;29;19918;-65
2022/09/05 11:25:26;;;;;;;;;;;27.50;52.60;;;;;;4918792;29;19911;-65
2022/09/05 11:27:53;;;;;;;;;;;27.50;52.80;;;;;;4917610;29;19919;-64
2022/09/05 11:30:20;;;;;;;;;;;27.50;52.20;;;;;;4916825;29;19915;-62
2022/09/05 11:32:49;;;;;;;;;;;27.60;51.80;;;;;;4917602;29;20287;-65
2022/09/05 11:35:14;;;;;;;;;;;27.70;53.30;;;;;;4917536;29;20028;-67
2022/09/05 11:37:55;;;;;;;;;;;27.70;53.00;;;;;;4920591;29;20013;-67
2022/09/05 11:40:33;;;;;;;;;;;27.80;51.10;;;;;;4929420;29;19958;-68
2022/09/05 11:43:17;;;;;;;;;;;27.80;51.50;;;;;;4917431;29;19919;-63
2022/09/05 11:45:43;;;;;;;;;;;27.80;50.90;;;;;;4917101;29;20387;-62
2022/09/05 11:48:26;;;;;;;;;;;27.80;49.10;;;;;;4917483;29;19950;-64
2022/09/05 11:50:55;;;;;;;;;;;27.70;48.90;;;;;;4924912;29;20267;-65
2022/09/05 11:53:35;;;;;;;;;;;27.60;51.60;;;;;;4898301;29;20298;-65
2022/09/05 11:56:02;;;;;;;;;;;27.60;50.80;;;;;;4913558;29;20319;-68
2022/09/05 11:58:39;;;;;;;;;;;27.40;51.50;;;;;;4916848;29;20419;-64
2022/09/05 12:01:07;;;;;;;;;;;27.40;51.40;;;;;;4917269;29;20381;-67
2022/09/05 12:03:40;;;;;;;;;;;27.40;51.90;;;;;;4917341;29;19976;-66
2022/09/05 12:06:24;;;;;;;;;;;27.50;52.40;;;;;;4917250;29;20009;-63
2022/09/05 12:08:55;;;;;;;;;;;27.50;51.40;;;;;;4916644;29;20351;-63
2022/09/05 12:11:34;;;;;;;;;;;27.50;51.70;;;;;;4908386;29;20010;-65
2022/09/05 12:14:00;;;;;;;;;;;27.50;52.40;;;;;;4913875;29;19951;-64
2022/09/05 12:16:31;;;;;;;;;;;27.50;52.30;;;;;;4917220;29;20287;-64
2022/09/05 12:19:15;;;;;;;;;;;27.50;53.40;;;;;;4916124;29;19911;-63
2022/09/05 12:21:51;;;;;;;;;;;27.60;53.40;;;;;;4915401;29;19915;-64
2022/09/05 12:24:34;;;;;;;;;;;27.60;55.00;;;;;;4901010;29;20371;-64
2022/09/05 12:27:02;;;;;;;;;;;27.60;55.50;;;;;;4914967;29;20336;-64
2022/09/05 12:29:32;;;;;;;;;;;27.70;55.80;;;;;;4916474;29;19930;-67
2022/09/05 12:31:59;;;;;;;;;;;27.70;55.30;;;;;;4916319;29;20073;-64
2022/09/05 12:34:52;;;;;;;;;;;27.70;55.40;;;;;;4916409;29;19927;-64
2022/09/05 12:37:20;;;;;;;;;;;27.60;54.80;;;;;;4916390;29;19943;-64
2022/09/05 12:39:51;;;;;;;;;;;27.60;55.70;;;;;;4916337;29;20371;-64
2022/09/05 12:42:21;;;;;;;;;;;27.60;55.60;;;;;;4918684;29;19915;-65
2022/09/05 12:45:08;;;;;;;;;;;27.50;56.00;;;;;;4915906;29;19911;-65
2022/09/05 12:47:45;;;;;;;;;;;27.50;55.80;;;;;;4916175;29;19918;-64
2022/09/05 12:50:16;;;;;;;;;;;27.60;56.80;;;;;;4913512;29;19915;-64
2022/09/05 12:52:48;;;;;;;;;;;27.50;57.00;;;;;;4905363;29;19923;-65
2022/09/05 12:55:16;;;;;;;;;;;27.50;55.60;;;;;;4915920;29;20365;-66
2022/09/05 12:57:43;;;;;;;;;;;27.50;56.00;;;;;;4915663;29;20452;-69
2022/09/05 13:00:08;;;;;;;;;;;27.40;54.80;;;;;;4915024;29;19916;-65
2022/09/05 13:02:34;;;;;;;;;;;27.40;54.80;;;;;;4915361;29;19926;-66
2022/09/05 13:05:08;;;;;;;;;;;27.40;55.60;;;;;;4915361;29;20862;-67
2022/09/05 13:07:42;;;;;;;;;;;27.40;55.50;;;;;;4914669;29;20320;-67
2022/09/05 13:10:17;;;;;;;;;;;27.40;54.10;;;;;;4913929;29;20423;-67
2022/09/05 13:12:46;;;;;;;;;;;27.40;54.90;;;;;;4915521;29;20005;-67
2022/09/05 13:15:21;;;;;;;;;;;27.40;52.00;;;;;;4914721;29;19918;-67
2022/09/05 13:17:50;;;;;;;;;;;27.50;51.40;;;;;;4912085;29;19911;-66
2022/09/05 13:20:15;;;;;;;;;;;27.50;52.90;;;;;;4914660;29;19940;-65
2022/09/05 13:22:42;;;;;;;;;;;27.50;53.60;;;;;;4908153;29;20283;-64
2022/09/05 13:25:29;;;;;;;;;;;27.50;53.20;;;;;;4914431;29;20213;-72
2022/09/05 13:27:58;;;;;;;;;;;27.50;52.50;;;;;;4913904;29;20363;-67
2022/09/05 13:30:24;;;;;;;;;;;27.50;53.60;;;;;;4912922;29;19915;-69
2022/09/05 13:32:51;;;;;;;;;;;27.40;52.80;;;;;;4912912;29;19967;-69
2022/09/05 13:35:21;;;;;;;;;;;27.50;51.40;;;;;;4913855;29;19922;-68
2022/09/05 13:37:57;;;;;;;;;;;27.50;52.20;;;;;;4913519;29;19919;-66
2022/09/05 13:40:30;;;;;;;;;;;27.50;53.30;;;;;;4913051;29;20002;-71
2022/09/05 13:42:59;;;;;;;;;;;27.50;51.80;;;;;;4913868;29;19922;-68
2022/09/05 13:45:25;;;;;;;;;;;27.50;52.80;;;;;;4912950;29;19911;-67
2022/09/05 13:47:57;;;;;;;;;;;27.50;52.60;;;;;;4913043;29;19922;-74
2022/09/05 13:50:25;;;;;;;;;;;27.50;52.70;;;;;;4912961;29;19950;-73
2022/09/05 13:53:09;;;;;;;;;;;27.50;52.20;;;;;;4907810;29;20415;-69
2022/09/05 13:55:42;;;;;;;;;;;27.50;52.30;;;;;;4914834;29;19917;-73
2022/09/05 13:58:15;;;;;;;;;;;27.50;52.50;;;;;;4914964;29;19958;-67
2022/09/05 14:00:41;;;;;;;;;;;27.50;52.50;;;;;;4914959;29;20331;-75
2022/09/05 14:03:26;;;;;;;;;;;27.50;52.10;;;;;;4915208;29;19911;-74
2022/09/05 14:05:55;;;;;;;;;;;27.40;51.50;;;;;;4914708;29;19945;-76
2022/09/05 14:08:39;;;;;;;;;;;27.40;51.80;;;;;;4915793;29;20292;-75
2022/09/05 14:11:39;;;;;;;;;;;27.40;52.40;;;;;;4916028;29;19957;-67
2022/09/05 14:14:13;;;;;;;;;;;27.40;52.60;;;;;;4934104;29;20009;-67
2022/09/05 14:16:42;;;;;;;;;;;27.40;53.20;;;;;;4916248;29;19918;-67
2022/09/05 14:21:59;;;;;;;;;;;27.40;53.50;;;;;;4910148;29;19922;-69
2022/09/05 14:24:26;;;;;;;;;;;27.40;53.40;;;;;;4917454;29;19943;-69
2022/09/05 14:26:58;;;;;;;;;;;27.40;53.30;;;;;;4917126;29;20430;-65
2022/09/05 14:29:42;;;;;;;;;;;27.40;53.80;;;;;;4917587;29;19957;-67
2022/09/05 14:32:12;;;;;;;;;;;27.40;53.30;;;;;;4918304;29;20161;-68
2022/09/05 14:34:46;;;;;;;;;;;27.40;53.10;;;;;;4918510;29;19923;-70
2022/09/05 14:37:12;;;;;;;;;;;27.40;52.80;;;;;;4918249;29;20285;-68
2022/09/05 14:39:46;;;;;;;;;;;27.40;53.70;;;;;;4918382;29;19944;-67
2022/09/05 14:42:31;;;;;;;;;;;27.30;53.80;;;;;;4918381;29;19999;-70
2022/09/05 14:44:56;;;;;;;;;;;27.40;54.20;;;;;;4918435;29;19959;-69
2022/09/05 14:47:46;;;;;;;;;;;27.30;54.50;;;;;;4917878;29;19911;-66
2022/09/05 14:50:15;;;;;;;;;;;27.30;54.50;;;;;;4918553;29;19911;-63
2022/09/05 14:52:56;;;;;;;;;;;27.30;54.10;;;;;;4910719;29;19919;-67
2022/09/05 14:55:22;;;;;;;;;;;27.30;54.30;;;;;;4918647;29;20287;-64
2022/09/05 14:57:48;;;;;;;;;;;27.30;54.70;;;;;;4918617;29;19915;-63
2022/09/05 15:00:16;;;;;;;;;;;27.30;54.90;;;;;;4918858;29;19967;-62
2022/09/05 15:02:46;;;;;;;;;;;27.30;54.60;;;;;;4919150;29;19918;-64